sensor_id;sensor_type;location;lat;lon;timestamp;P1;durP1;ratioP1;P2;durP2;ratioP2
45694;SDS011;31408;45.468;9.124;2023-02-15T00:01:45;53.33;;;25.33;;
45694;SDS011;31408;45.468;9.124;2023-02-15T00:04:15;67.30;;;29.05;;
45694;SDS011;31408;45.468;9.124;2023-02-15T00:06:42;58.35;;;27.23;;
45694;SDS011;31408;45.468;9.124;2023-02-15T00:09:11;58.63;;;29.38;;
45694;SDS011;31408;45.468;9.124;2023-02-15T00:11:37;62.67;;;28.60;;
45694;SDS011;31408;45.468;9.124;2023-02-15T00:16:35;54.28;;;25.58;;
45694;SDS011;31408;45.468;9.124;2023-02-15T00:19:01;54.75;;;26.17;;
45694;SDS011;31408;45.468;9.124;2023-02-15T00:21:27;55.15;;;25.40;;
45694;SDS011;31408;45.468;9.124;2023-02-15T00:23:54;53.88;;;26.63;;
45694;SDS011;31408;45.468;9.124;2023-02-15T00:26:20;61.60;;;26.10;;
45694;SDS011;31408;45.468;9.124;2023-02-15T00:28:46;51.78;;;23.83;;
45694;SDS011;31408;45.468;9.124;2023-02-15T00:31:12;57.53;;;24.83;;
45694;SDS011;31408;45.468;9.124;2023-02-15T00:33:38;67.38;;;26.08;;
45694;SDS011;31408;45.468;9.124;2023-02-15T00:36:04;58.35;;;26.98;;
45694;SDS011;31408;45.468;9.124;2023-02-15T00:38:31;55.55;;;24.63;;
45694;SDS011;31408;45.468;9.124;2023-02-15T00:40:58;61.03;;;25.58;;
45694;SDS011;31408;45.468;9.124;2023-02-15T00:43:25;62.30;;;25.80;;
45694;SDS011;31408;45.468;9.124;2023-02-15T00:45:51;50.83;;;25.45;;
45694;SDS011;31408;45.468;9.124;2023-02-15T00:48:17;53.47;;;23.52;;
45694;SDS011;31408;45.468;9.124;2023-02-15T00:50:46;57.60;;;26.77;;
45694;SDS011;31408;45.468;9.124;2023-02-15T00:53:13;57.95;;;26.73;;
45694;SDS011;31408;45.468;9.124;2023-02-15T00:55:39;60.78;;;25.80;;
45694;SDS011;31408;45.468;9.124;2023-02-15T00:58:08;57.55;;;26.27;;
45694;SDS011;31408;45.468;9.124;2023-02-15T01:00:34;64.60;;;26.70;;
45694;SDS011;31408;45.468;9.124;2023-02-15T01:03:00;55.42;;;24.73;;
45694;SDS011;31408;45.468;9.124;2023-02-15T01:05:26;55.70;;;25.60;;
45694;SDS011;31408;45.468;9.124;2023-02-15T01:07:51;53.72;;;25.60;;
45694;SDS011;31408;45.468;9.124;2023-02-15T01:10:16;52.72;;;25.55;;
45694;SDS011;31408;45.468;9.124;2023-02-15T01:12:42;54.25;;;23.67;;
45694;SDS011;31408;45.468;9.124;2023-02-15T01:15:08;63.10;;;28.38;;
45694;SDS011;31408;45.468;9.124;2023-02-15T01:17:35;65.95;;;29.10;;
45694;SDS011;31408;45.468;9.124;2023-02-15T01:20:02;72.82;;;29.23;;
45694;SDS011;31408;45.468;9.124;2023-02-15T01:22:28;56.13;;;24.38;;
45694;SDS011;31408;45.468;9.124;2023-02-15T01:24:54;61.60;;;26.40;;
45694;SDS011;31408;45.468;9.124;2023-02-15T01:27:19;62.03;;;27.08;;
45694;SDS011;31408;45.468;9.124;2023-02-15T01:29:45;57.97;;;30.02;;
45694;SDS011;31408;45.468;9.124;2023-02-15T01:32:14;54.10;;;26.45;;
45694;SDS011;31408;45.468;9.124;2023-02-15T01:34:42;62.42;;;26.70;;
45694;SDS011;31408;45.468;9.124;2023-02-15T01:37:07;57.47;;;26.52;;
45694;SDS011;31408;45.468;9.124;2023-02-15T01:39:33;55.65;;;25.58;;
45694;SDS011;31408;45.468;9.124;2023-02-15T01:41:59;54.17;;;25.10;;
45694;SDS011;31408;45.468;9.124;2023-02-15T01:47:38;57.85;;;25.02;;
45694;SDS011;31408;45.468;9.124;2023-02-15T01:50:15;62.88;;;27.77;;
45694;SDS011;31408;45.468;9.124;2023-02-15T01:52:47;50.13;;;24.38;;
45694;SDS011;31408;45.468;9.124;2023-02-15T01:55:14;58.53;;;26.10;;
45694;SDS011;31408;45.468;9.124;2023-02-15T01:57:41;50.92;;;26.83;;
45694;SDS011;31408;45.468;9.124;2023-02-15T02:00:07;59.05;;;25.27;;
45694;SDS011;31408;45.468;9.124;2023-02-15T02:02:42;55.40;;;26.33;;
45694;SDS011;31408;45.468;9.124;2023-02-15T02:05:08;57.45;;;25.48;;
45694;SDS011;31408;45.468;9.124;2023-02-15T02:07:38;55.55;;;26.00;;
45694;SDS011;31408;45.468;9.124;2023-02-15T02:10:07;64.15;;;25.20;;
45694;SDS011;31408;45.468;9.124;2023-02-15T02:12:34;51.78;;;27.48;;
45694;SDS011;31408;45.468;9.124;2023-02-15T02:15:00;57.67;;;26.45;;
45694;SDS011;31408;45.468;9.124;2023-02-15T02:36:44;63.55;;;26.08;;
45694;SDS011;31408;45.468;9.124;2023-02-15T02:44:21;64.97;;;29.15;;
45694;SDS011;31408;45.468;9.124;2023-02-15T02:49:32;55.15;;;26.83;;
45694;SDS011;31408;45.468;9.124;2023-02-15T02:52:00;54.42;;;28.77;;
45694;SDS011;31408;45.468;9.124;2023-02-15T02:54:32;58.00;;;27.60;;
45694;SDS011;31408;45.468;9.124;2023-02-15T02:57:00;57.25;;;28.98;;
45694;SDS011;31408;45.468;9.124;2023-02-15T02:59:33;54.53;;;24.15;;
45694;SDS011;31408;45.468;9.124;2023-02-15T03:02:11;62.15;;;27.42;;
45694;SDS011;31408;45.468;9.124;2023-02-15T03:04:39;57.92;;;28.15;;
45694;SDS011;31408;45.468;9.124;2023-02-15T03:07:11;57.45;;;27.02;;
45694;SDS011;31408;45.468;9.124;2023-02-15T03:09:39;57.53;;;27.30;;
45694;SDS011;31408;45.468;9.124;2023-02-15T03:12:09;60.00;;;28.25;;
45694;SDS011;31408;45.468;9.124;2023-02-15T03:14:41;59.95;;;26.80;;
45694;SDS011;31408;45.468;9.124;2023-02-15T03:17:09;57.03;;;27.85;;
45694;SDS011;31408;45.468;9.124;2023-02-15T03:19:37;50.15;;;26.88;;
45694;SDS011;31408;45.468;9.124;2023-02-15T03:22:12;50.58;;;26.70;;
45694;SDS011;31408;45.468;9.124;2023-02-15T03:27:31;52.50;;;25.45;;
45694;SDS011;31408;45.468;9.124;2023-02-15T03:30:00;51.97;;;26.35;;
45694;SDS011;31408;45.468;9.124;2023-02-15T03:32:28;59.53;;;28.85;;
45694;SDS011;31408;45.468;9.124;2023-02-15T03:34:54;59.85;;;27.40;;
45694;SDS011;31408;45.468;9.124;2023-02-15T03:37:32;56.33;;;25.02;;
45694;SDS011;31408;45.468;9.124;2023-02-15T03:45:31;48.58;;;25.27;;
45694;SDS011;31408;45.468;9.124;2023-02-15T03:47:57;53.38;;;26.83;;
45694;SDS011;31408;45.468;9.124;2023-02-15T03:50:24;61.50;;;28.88;;
45694;SDS011;31408;45.468;9.124;2023-02-15T03:53:11;56.10;;;26.85;;
45694;SDS011;31408;45.468;9.124;2023-02-15T03:55:39;54.72;;;26.20;;
45694;SDS011;31408;45.468;9.124;2023-02-15T03:58:05;60.60;;;26.05;;
45694;SDS011;31408;45.468;9.124;2023-02-15T04:00:50;53.28;;;29.02;;
45694;SDS011;31408;45.468;9.124;2023-02-15T04:03:40;51.28;;;25.67;;
45694;SDS011;31408;45.468;9.124;2023-02-15T04:06:08;60.47;;;29.10;;
45694;SDS011;31408;45.468;9.124;2023-02-15T04:08:33;57.42;;;26.98;;
45694;SDS011;31408;45.468;9.124;2023-02-15T04:11:17;55.30;;;25.35;;
45694;SDS011;31408;45.468;9.124;2023-02-15T04:13:43;54.70;;;23.48;;
45694;SDS011;31408;45.468;9.124;2023-02-15T04:16:08;63.67;;;28.48;;
45694;SDS011;31408;45.468;9.124;2023-02-15T04:18:42;53.08;;;25.85;;
45694;SDS011;31408;45.468;9.124;2023-02-15T04:21:28;58.75;;;26.05;;
45694;SDS011;31408;45.468;9.124;2023-02-15T04:24:13;60.22;;;25.23;;
45694;SDS011;31408;45.468;9.124;2023-02-15T04:26:58;57.10;;;25.60;;
45694;SDS011;31408;45.468;9.124;2023-02-15T04:29:24;49.58;;;24.08;;
45694;SDS011;31408;45.468;9.124;2023-02-15T04:31:51;53.25;;;25.70;;
45694;SDS011;31408;45.468;9.124;2023-02-15T04:34:17;46.63;;;24.08;;
45694;SDS011;31408;45.468;9.124;2023-02-15T04:36:43;59.60;;;27.08;;
45694;SDS011;31408;45.468;9.124;2023-02-15T04:39:08;62.83;;;26.35;;
45694;SDS011;31408;45.468;9.124;2023-02-15T04:41:34;55.63;;;25.45;;
45694;SDS011;31408;45.468;9.124;2023-02-15T04:44:00;63.67;;;26.45;;
45694;SDS011;31408;45.468;9.124;2023-02-15T04:46:26;56.00;;;24.73;;
45694;SDS011;31408;45.468;9.124;2023-02-15T04:48:52;56.45;;;26.35;;
45694;SDS011;31408;45.468;9.124;2023-02-15T04:51:17;54.72;;;26.20;;
45694;SDS011;31408;45.468;9.124;2023-02-15T04:53:43;50.58;;;25.40;;
45694;SDS011;31408;45.468;9.124;2023-02-15T04:56:08;55.55;;;25.38;;
45694;SDS011;31408;45.468;9.124;2023-02-15T04:58:34;52.38;;;24.35;;
45694;SDS011;31408;45.468;9.124;2023-02-15T05:01:00;47.88;;;24.58;;
45694;SDS011;31408;45.468;9.124;2023-02-15T05:03:26;54.97;;;24.42;;
45694;SDS011;31408;45.468;9.124;2023-02-15T05:05:51;51.95;;;24.27;;
45694;SDS011;31408;45.468;9.124;2023-02-15T05:08:17;52.47;;;23.75;;
45694;SDS011;31408;45.468;9.124;2023-02-15T05:10:42;54.30;;;24.02;;
45694;SDS011;31408;45.468;9.124;2023-02-15T05:13:08;48.30;;;25.42;;
45694;SDS011;31408;45.468;9.124;2023-02-15T05:15:33;48.20;;;23.88;;
45694;SDS011;31408;45.468;9.124;2023-02-15T05:17:59;41.83;;;20.45;;
45694;SDS011;31408;45.468;9.124;2023-02-15T05:20:25;54.28;;;26.75;;
45694;SDS011;31408;45.468;9.124;2023-02-15T05:22:59;46.90;;;22.77;;
45694;SDS011;31408;45.468;9.124;2023-02-15T05:25:24;47.22;;;23.55;;
45694;SDS011;31408;45.468;9.124;2023-02-15T05:28:12;52.00;;;24.52;;
45694;SDS011;31408;45.468;9.124;2023-02-15T05:30:50;50.05;;;22.77;;
45694;SDS011;31408;45.468;9.124;2023-02-15T05:33:28;50.45;;;23.50;;
45694;SDS011;31408;45.468;9.124;2023-02-15T05:35:53;53.92;;;25.45;;
45694;SDS011;31408;45.468;9.124;2023-02-15T05:38:18;47.30;;;22.85;;
45694;SDS011;31408;45.468;9.124;2023-02-15T05:40:44;50.65;;;23.25;;
45694;SDS011;31408;45.468;9.124;2023-02-15T05:43:09;49.88;;;24.58;;
45694;SDS011;31408;45.468;9.124;2023-02-15T05:45:35;47.33;;;22.15;;
45694;SDS011;31408;45.468;9.124;2023-02-15T05:48:00;47.05;;;24.33;;
45694;SDS011;31408;45.468;9.124;2023-02-15T05:50:26;58.67;;;25.25;;
45694;SDS011;31408;45.468;9.124;2023-02-15T05:52:51;55.92;;;25.38;;
45694;SDS011;31408;45.468;9.124;2023-02-15T05:55:17;47.67;;;22.75;;
45694;SDS011;31408;45.468;9.124;2023-02-15T05:57:43;49.65;;;23.00;;
45694;SDS011;31408;45.468;9.124;2023-02-15T06:00:09;40.67;;;21.83;;
45694;SDS011;31408;45.468;9.124;2023-02-15T06:02:37;40.25;;;20.98;;
45694;SDS011;31408;45.468;9.124;2023-02-15T06:05:03;49.47;;;23.45;;
45694;SDS011;31408;45.468;9.124;2023-02-15T06:07:30;50.10;;;24.63;;
45694;SDS011;31408;45.468;9.124;2023-02-15T06:09:55;47.33;;;20.55;;
45694;SDS011;31408;45.468;9.124;2023-02-15T06:12:21;48.50;;;23.92;;
45694;SDS011;31408;45.468;9.124;2023-02-15T06:14:46;48.70;;;23.33;;
45694;SDS011;31408;45.468;9.124;2023-02-15T06:17:12;59.70;;;22.80;;
45694;SDS011;31408;45.468;9.124;2023-02-15T06:19:37;43.92;;;21.35;;
45694;SDS011;31408;45.468;9.124;2023-02-15T06:22:02;45.72;;;20.67;;
45694;SDS011;31408;45.468;9.124;2023-02-15T06:24:28;47.95;;;21.25;;
45694;SDS011;31408;45.468;9.124;2023-02-15T06:26:54;47.47;;;22.73;;
45694;SDS011;31408;45.468;9.124;2023-02-15T06:29:19;49.60;;;21.40;;
45694;SDS011;31408;45.468;9.124;2023-02-15T06:31:44;46.38;;;23.73;;
45694;SDS011;31408;45.468;9.124;2023-02-15T06:34:10;54.03;;;23.23;;
45694;SDS011;31408;45.468;9.124;2023-02-15T06:36:35;52.30;;;23.80;;
45694;SDS011;31408;45.468;9.124;2023-02-15T06:39:02;47.53;;;22.67;;
45694;SDS011;31408;45.468;9.124;2023-02-15T06:41:28;41.72;;;19.33;;
45694;SDS011;31408;45.468;9.124;2023-02-15T06:43:53;39.22;;;20.50;;
45694;SDS011;31408;45.468;9.124;2023-02-15T06:46:19;52.65;;;23.35;;
45694;SDS011;31408;45.468;9.124;2023-02-15T06:48:44;51.95;;;22.63;;
45694;SDS011;31408;45.468;9.124;2023-02-15T06:51:09;45.30;;;19.15;;
45694;SDS011;31408;45.468;9.124;2023-02-15T06:53:35;42.55;;;20.65;;
45694;SDS011;31408;45.468;9.124;2023-02-15T06:56:05;46.80;;;21.48;;
45694;SDS011;31408;45.468;9.124;2023-02-15T06:58:34;49.78;;;22.02;;
45694;SDS011;31408;45.468;9.124;2023-02-15T07:01:00;48.60;;;21.52;;
45694;SDS011;31408;45.468;9.124;2023-02-15T07:03:25;48.42;;;23.38;;
45694;SDS011;31408;45.468;9.124;2023-02-15T07:05:57;43.67;;;22.17;;
45694;SDS011;31408;45.468;9.124;2023-02-15T07:08:25;46.03;;;21.58;;
45694;SDS011;31408;45.468;9.124;2023-02-15T07:10:51;49.45;;;22.25;;
45694;SDS011;31408;45.468;9.124;2023-02-15T07:13:17;47.50;;;21.90;;
45694;SDS011;31408;45.468;9.124;2023-02-15T07:15:43;52.95;;;23.17;;
45694;SDS011;31408;45.468;9.124;2023-02-15T07:18:09;42.05;;;20.90;;
45694;SDS011;31408;45.468;9.124;2023-02-15T07:20:36;53.05;;;23.42;;
45694;SDS011;31408;45.468;9.124;2023-02-15T07:23:02;47.70;;;21.98;;
45694;SDS011;31408;45.468;9.124;2023-02-15T07:25:27;45.58;;;23.25;;
45694;SDS011;31408;45.468;9.124;2023-02-15T07:27:56;43.40;;;22.20;;
45694;SDS011;31408;45.468;9.124;2023-02-15T07:30:23;43.17;;;23.38;;
45694;SDS011;31408;45.468;9.124;2023-02-15T07:32:48;47.70;;;22.73;;
45694;SDS011;31408;45.468;9.124;2023-02-15T07:35:33;44.22;;;22.02;;
45694;SDS011;31408;45.468;9.124;2023-02-15T07:37:59;45.22;;;22.58;;
45694;SDS011;31408;45.468;9.124;2023-02-15T07:40:24;37.72;;;22.13;;
45694;SDS011;31408;45.468;9.124;2023-02-15T07:42:50;47.78;;;21.77;;
45694;SDS011;31408;45.468;9.124;2023-02-15T07:45:20;44.13;;;21.45;;
45694;SDS011;31408;45.468;9.124;2023-02-15T07:47:45;43.53;;;22.35;;
45694;SDS011;31408;45.468;9.124;2023-02-15T07:50:11;45.35;;;22.00;;
45694;SDS011;31408;45.468;9.124;2023-02-15T07:52:36;43.08;;;21.80;;
45694;SDS011;31408;45.468;9.124;2023-02-15T07:55:04;46.83;;;23.33;;
45694;SDS011;31408;45.468;9.124;2023-02-15T07:57:30;45.40;;;22.67;;
45694;SDS011;31408;45.468;9.124;2023-02-15T07:59:56;42.25;;;20.60;;
45694;SDS011;31408;45.468;9.124;2023-02-15T08:02:21;37.83;;;20.33;;
45694;SDS011;31408;45.468;9.124;2023-02-15T08:04:47;43.28;;;20.55;;
45694;SDS011;31408;45.468;9.124;2023-02-15T08:07:12;41.17;;;21.33;;
45694;SDS011;31408;45.468;9.124;2023-02-15T08:09:37;45.25;;;21.05;;
45694;SDS011;31408;45.468;9.124;2023-02-15T08:12:03;41.90;;;21.10;;
45694;SDS011;31408;45.468;9.124;2023-02-15T08:14:29;40.70;;;22.33;;
45694;SDS011;31408;45.468;9.124;2023-02-15T08:16:55;38.72;;;20.30;;
45694;SDS011;31408;45.468;9.124;2023-02-15T08:19:25;40.67;;;20.88;;
45694;SDS011;31408;45.468;9.124;2023-02-15T08:21:53;38.13;;;19.70;;
45694;SDS011;31408;45.468;9.124;2023-02-15T08:24:22;39.05;;;21.30;;
45694;SDS011;31408;45.468;9.124;2023-02-15T08:26:49;45.97;;;24.10;;
45694;SDS011;31408;45.468;9.124;2023-02-15T08:29:16;38.63;;;21.40;;
45694;SDS011;31408;45.468;9.124;2023-02-15T08:31:43;35.72;;;19.50;;
45694;SDS011;31408;45.468;9.124;2023-02-15T08:34:10;46.88;;;21.67;;
45694;SDS011;31408;45.468;9.124;2023-02-15T08:36:38;40.10;;;20.65;;
45694;SDS011;31408;45.468;9.124;2023-02-15T08:39:04;39.83;;;18.80;;
45694;SDS011;31408;45.468;9.124;2023-02-15T08:41:31;44.75;;;21.65;;
45694;SDS011;31408;45.468;9.124;2023-02-15T08:44:01;42.95;;;21.10;;
45694;SDS011;31408;45.468;9.124;2023-02-15T08:46:36;40.05;;;20.55;;
45694;SDS011;31408;45.468;9.124;2023-02-15T08:49:02;38.00;;;20.85;;
45694;SDS011;31408;45.468;9.124;2023-02-15T08:51:32;51.47;;;23.25;;
45694;SDS011;31408;45.468;9.124;2023-02-15T08:54:00;44.25;;;22.50;;
45694;SDS011;31408;45.468;9.124;2023-02-15T08:56:29;40.78;;;21.85;;
45694;SDS011;31408;45.468;9.124;2023-02-15T08:58:57;48.33;;;23.88;;
45694;SDS011;31408;45.468;9.124;2023-02-15T09:01:23;39.65;;;23.52;;
45694;SDS011;31408;45.468;9.124;2023-02-15T09:03:57;52.85;;;27.13;;
45694;SDS011;31408;45.468;9.124;2023-02-15T09:06:24;48.05;;;25.38;;
45694;SDS011;31408;45.468;9.124;2023-02-15T09:08:50;52.10;;;29.10;;
45694;SDS011;31408;45.468;9.124;2023-02-15T09:11:17;49.15;;;25.88;;
45694;SDS011;31408;45.468;9.124;2023-02-15T09:14:00;51.38;;;28.55;;
45694;SDS011;31408;45.468;9.124;2023-02-15T09:16:30;52.05;;;29.38;;
45694;SDS011;31408;45.468;9.124;2023-02-15T09:18:57;49.45;;;28.52;;
45694;SDS011;31408;45.468;9.124;2023-02-15T09:21:24;49.47;;;27.15;;
45694;SDS011;31408;45.468;9.124;2023-02-15T09:23:52;48.35;;;27.65;;
45694;SDS011;31408;45.468;9.124;2023-02-15T09:26:21;49.38;;;28.73;;
45694;SDS011;31408;45.468;9.124;2023-02-15T09:28:50;56.45;;;28.55;;
45694;SDS011;31408;45.468;9.124;2023-02-15T09:31:18;58.40;;;30.10;;
45694;SDS011;31408;45.468;9.124;2023-02-15T09:33:46;54.67;;;28.27;;
45694;SDS011;31408;45.468;9.124;2023-02-15T09:47:16;54.50;;;28.98;;
45694;SDS011;31408;45.468;9.124;2023-02-15T09:50:09;56.22;;;28.48;;
45694;SDS011;31408;45.468;9.124;2023-02-15T09:55:23;49.38;;;28.27;;
45694;SDS011;31408;45.468;9.124;2023-02-15T10:11:49;55.25;;;29.48;;
45694;SDS011;31408;45.468;9.124;2023-02-15T10:14:27;52.67;;;26.67;;
45694;SDS011;31408;45.468;9.124;2023-02-15T10:28:05;56.42;;;29.85;;
45694;SDS011;31408;45.468;9.124;2023-02-15T10:33:16;55.05;;;30.13;;
45694;SDS011;31408;45.468;9.124;2023-02-15T10:41:59;54.80;;;29.88;;
45694;SDS011;31408;45.468;9.124;2023-02-15T10:47:10;58.35;;;32.67;;
45694;SDS011;31408;45.468;9.124;2023-02-15T10:56:03;59.83;;;34.35;;
45694;SDS011;31408;45.468;9.124;2023-02-15T11:02:23;56.50;;;32.08;;
45694;SDS011;31408;45.468;9.124;2023-02-15T11:07:47;63.75;;;35.42;;
45694;SDS011;31408;45.468;9.124;2023-02-15T11:13:02;59.05;;;35.05;;
45694;SDS011;31408;45.468;9.124;2023-02-15T11:15:36;58.42;;;34.17;;
45694;SDS011;31408;45.468;9.124;2023-02-15T11:20:55;60.95;;;34.25;;
45694;SDS011;31408;45.468;9.124;2023-02-15T11:23:21;66.22;;;34.40;;
45694;SDS011;31408;45.468;9.124;2023-02-15T11:26:04;62.50;;;35.78;;
45694;SDS011;31408;45.468;9.124;2023-02-15T11:28:38;68.35;;;37.97;;
45694;SDS011;31408;45.468;9.124;2023-02-15T11:31:12;67.68;;;36.67;;
45694;SDS011;31408;45.468;9.124;2023-02-15T11:33:43;63.90;;;34.20;;
45694;SDS011;31408;45.468;9.124;2023-02-15T11:38:47;66.22;;;34.63;;
45694;SDS011;31408;45.468;9.124;2023-02-15T11:41:20;63.28;;;34.88;;
45694;SDS011;31408;45.468;9.124;2023-02-15T11:43:50;64.57;;;35.25;;
45694;SDS011;31408;45.468;9.124;2023-02-15T11:46:19;64.43;;;35.20;;
45694;SDS011;31408;45.468;9.124;2023-02-15T11:48:46;64.85;;;35.75;;
45694;SDS011;31408;45.468;9.124;2023-02-15T11:51:13;63.72;;;35.60;;
45694;SDS011;31408;45.468;9.124;2023-02-15T11:53:41;69.25;;;37.97;;
45694;SDS011;31408;45.468;9.124;2023-02-15T11:56:13;69.18;;;35.75;;
45694;SDS011;31408;45.468;9.124;2023-02-15T11:58:41;58.10;;;34.83;;
45694;SDS011;31408;45.468;9.124;2023-02-15T12:01:15;68.93;;;37.13;;
45694;SDS011;31408;45.468;9.124;2023-02-15T12:03:47;67.10;;;38.25;;
45694;SDS011;31408;45.468;9.124;2023-02-15T12:06:22;59.97;;;33.63;;
45694;SDS011;31408;45.468;9.124;2023-02-15T12:08:56;66.40;;;36.28;;
45694;SDS011;31408;45.468;9.124;2023-02-15T12:11:45;69.15;;;36.83;;
45694;SDS011;31408;45.468;9.124;2023-02-15T12:14:13;66.20;;;34.65;;
45694;SDS011;31408;45.468;9.124;2023-02-15T12:16:49;71.65;;;36.90;;
45694;SDS011;31408;45.468;9.124;2023-02-15T12:19:38;66.55;;;36.17;;
45694;SDS011;31408;45.468;9.124;2023-02-15T12:22:45;56.28;;;34.08;;
45694;SDS011;31408;45.468;9.124;2023-02-15T12:25:02;62.55;;;33.72;;
45694;SDS011;31408;45.468;9.124;2023-02-15T12:27:30;64.28;;;34.03;;
45694;SDS011;31408;45.468;9.124;2023-02-15T12:29:59;63.85;;;33.30;;
45694;SDS011;31408;45.468;9.124;2023-02-15T12:32:34;65.18;;;33.33;;
45694;SDS011;31408;45.468;9.124;2023-02-15T12:35:08;58.90;;;31.48;;
45694;SDS011;31408;45.468;9.124;2023-02-15T12:37:37;64.20;;;32.17;;
45694;SDS011;31408;45.468;9.124;2023-02-15T12:40:37;61.88;;;32.78;;
45694;SDS011;31408;45.468;9.124;2023-02-15T12:42:56;60.63;;;31.98;;
45694;SDS011;31408;45.468;9.124;2023-02-15T12:45:24;65.18;;;33.03;;
45694;SDS011;31408;45.468;9.124;2023-02-15T12:50:39;64.35;;;32.88;;
45694;SDS011;31408;45.468;9.124;2023-02-15T12:55:54;60.03;;;34.00;;
45694;SDS011;31408;45.468;9.124;2023-02-15T12:58:25;60.95;;;31.35;;
45694;SDS011;31408;45.468;9.124;2023-02-15T13:04:01;55.83;;;31.35;;
45694;SDS011;31408;45.468;9.124;2023-02-15T13:06:30;61.60;;;33.40;;
45694;SDS011;31408;45.468;9.124;2023-02-15T13:08:58;62.65;;;30.70;;
45694;SDS011;31408;45.468;9.124;2023-02-15T13:11:31;67.35;;;33.20;;
45694;SDS011;31408;45.468;9.124;2023-02-15T13:14:00;67.22;;;32.47;;
45694;SDS011;31408;45.468;9.124;2023-02-15T13:18:55;61.35;;;33.25;;
45694;SDS011;31408;45.468;9.124;2023-02-15T13:21:25;63.47;;;30.27;;
45694;SDS011;31408;45.468;9.124;2023-02-15T13:26:48;58.38;;;30.30;;
45694;SDS011;31408;45.468;9.124;2023-02-15T13:29:24;60.25;;;31.48;;
45694;SDS011;31408;45.468;9.124;2023-02-15T13:31:51;62.88;;;31.23;;
45694;SDS011;31408;45.468;9.124;2023-02-15T13:34:31;64.43;;;31.98;;
45694;SDS011;31408;45.468;9.124;2023-02-15T13:39:38;60.00;;;29.10;;
45694;SDS011;31408;45.468;9.124;2023-02-15T13:42:20;61.10;;;30.83;;
45694;SDS011;31408;45.468;9.124;2023-02-15T13:53:28;64.53;;;29.80;;
45694;SDS011;31408;45.468;9.124;2023-02-15T14:01:31;59.45;;;28.98;;
45694;SDS011;31408;45.468;9.124;2023-02-15T14:12:37;70.28;;;32.22;;
45694;SDS011;31408;45.468;9.124;2023-02-15T14:21:16;61.30;;;27.38;;
45694;SDS011;31408;45.468;9.124;2023-02-15T14:31:57;59.95;;;29.42;;
45694;SDS011;31408;45.468;9.124;2023-02-15T14:34:45;68.57;;;30.30;;
45694;SDS011;31408;45.468;9.124;2023-02-15T14:37:15;58.92;;;28.42;;
45694;SDS011;31408;45.468;9.124;2023-02-15T14:45:12;56.80;;;26.75;;
45694;SDS011;31408;45.468;9.124;2023-02-15T14:47:44;64.93;;;31.08;;
45694;SDS011;31408;45.468;9.124;2023-02-15T14:56:05;51.33;;;24.35;;
45694;SDS011;31408;45.468;9.124;2023-02-15T15:01:31;53.22;;;20.75;;
45694;SDS011;31408;45.468;9.124;2023-02-15T15:03:59;54.55;;;24.75;;
45694;SDS011;31408;45.468;9.124;2023-02-15T15:06:29;56.85;;;26.27;;
45694;SDS011;31408;45.468;9.124;2023-02-15T15:12:13;52.78;;;24.58;;
45694;SDS011;31408;45.468;9.124;2023-02-15T15:14:42;61.97;;;23.90;;
45694;SDS011;31408;45.468;9.124;2023-02-15T15:17:10;57.60;;;24.52;;
45694;SDS011;31408;45.468;9.124;2023-02-15T15:22:20;54.92;;;22.63;;
45694;SDS011;31408;45.468;9.124;2023-02-15T15:24:48;53.92;;;21.05;;
45694;SDS011;31408;45.468;9.124;2023-02-15T15:49:49;46.80;;;20.73;;
45694;SDS011;31408;45.468;9.124;2023-02-15T15:52:18;44.55;;;19.30;;
45694;SDS011;31408;45.468;9.124;2023-02-15T15:54:46;52.63;;;19.60;;
45694;SDS011;31408;45.468;9.124;2023-02-15T15:57:25;48.65;;;20.98;;
45694;SDS011;31408;45.468;9.124;2023-02-15T15:59:57;49.17;;;20.35;;
45694;SDS011;31408;45.468;9.124;2023-02-15T16:02:26;44.05;;;17.52;;
45694;SDS011;31408;45.468;9.124;2023-02-15T16:04:51;43.03;;;19.35;;
45694;SDS011;31408;45.468;9.124;2023-02-15T16:10:05;38.83;;;16.88;;
45694;SDS011;31408;45.468;9.124;2023-02-15T16:12:35;40.90;;;19.08;;
45694;SDS011;31408;45.468;9.124;2023-02-15T16:15:04;46.88;;;18.42;;
45694;SDS011;31408;45.468;9.124;2023-02-15T16:17:40;43.33;;;18.38;;
45694;SDS011;31408;45.468;9.124;2023-02-15T16:20:11;46.28;;;20.25;;
45694;SDS011;31408;45.468;9.124;2023-02-15T16:22:43;38.42;;;17.05;;
45694;SDS011;31408;45.468;9.124;2023-02-15T16:25:35;38.35;;;16.27;;
45694;SDS011;31408;45.468;9.124;2023-02-15T16:27:56;43.33;;;17.83;;
45694;SDS011;31408;45.468;9.124;2023-02-15T16:32:48;44.53;;;18.77;;
45694;SDS011;31408;45.468;9.124;2023-02-15T16:35:15;52.22;;;20.70;;
45694;SDS011;31408;45.468;9.124;2023-02-15T16:37:42;48.92;;;21.33;;
45694;SDS011;31408;45.468;9.124;2023-02-15T16:40:41;58.78;;;23.63;;
45694;SDS011;31408;45.468;9.124;2023-02-15T16:43:10;48.28;;;21.95;;
45694;SDS011;31408;45.468;9.124;2023-02-15T16:45:39;60.40;;;20.55;;
45694;SDS011;31408;45.468;9.124;2023-02-15T16:48:06;56.63;;;23.05;;
45694;SDS011;31408;45.468;9.124;2023-02-15T16:50:34;55.08;;;20.23;;
45694;SDS011;31408;45.468;9.124;2023-02-15T16:53:02;52.92;;;22.77;;
45694;SDS011;31408;45.468;9.124;2023-02-15T16:55:37;55.42;;;24.65;;
45694;SDS011;31408;45.468;9.124;2023-02-15T16:58:04;63.20;;;23.65;;
45694;SDS011;31408;45.468;9.124;2023-02-15T17:00:33;55.88;;;23.77;;
45694;SDS011;31408;45.468;9.124;2023-02-15T17:03:02;60.78;;;24.73;;
45694;SDS011;31408;45.468;9.124;2023-02-15T17:05:33;52.47;;;22.80;;
45694;SDS011;31408;45.468;9.124;2023-02-15T17:08:24;47.83;;;19.50;;
45694;SDS011;31408;45.468;9.124;2023-02-15T17:11:11;43.72;;;20.20;;
45694;SDS011;31408;45.468;9.124;2023-02-15T17:13:37;53.45;;;23.27;;
45694;SDS011;31408;45.468;9.124;2023-02-15T17:18:29;50.35;;;24.10;;
45694;SDS011;31408;45.468;9.124;2023-02-15T17:21:00;56.97;;;23.40;;
45694;SDS011;31408;45.468;9.124;2023-02-15T17:26:14;52.67;;;23.33;;
45694;SDS011;31408;45.468;9.124;2023-02-15T17:28:49;56.92;;;22.25;;
45694;SDS011;31408;45.468;9.124;2023-02-15T17:31:16;60.40;;;22.13;;
45694;SDS011;31408;45.468;9.124;2023-02-15T17:33:43;58.83;;;22.65;;
45694;SDS011;31408;45.468;9.124;2023-02-15T17:38:39;50.85;;;20.33;;
45694;SDS011;31408;45.468;9.124;2023-02-15T17:41:05;51.92;;;21.00;;
45694;SDS011;31408;45.468;9.124;2023-02-15T17:43:31;52.45;;;23.10;;
45694;SDS011;31408;45.468;9.124;2023-02-15T17:45:57;50.22;;;21.77;;
45694;SDS011;31408;45.468;9.124;2023-02-15T17:51:01;50.20;;;22.90;;
45694;SDS011;31408;45.468;9.124;2023-02-15T17:53:29;54.58;;;20.95;;
45694;SDS011;31408;45.468;9.124;2023-02-15T17:55:54;57.80;;;23.63;;
45694;SDS011;31408;45.468;9.124;2023-02-15T17:58:20;55.20;;;20.30;;
45694;SDS011;31408;45.468;9.124;2023-02-15T18:00:50;51.95;;;24.63;;
45694;SDS011;31408;45.468;9.124;2023-02-15T18:03:45;47.38;;;21.33;;
45694;SDS011;31408;45.468;9.124;2023-02-15T18:06:30;51.67;;;21.45;;
45694;SDS011;31408;45.468;9.124;2023-02-15T18:09:15;52.42;;;21.38;;
45694;SDS011;31408;45.468;9.124;2023-02-15T18:12:00;57.47;;;21.27;;
45694;SDS011;31408;45.468;9.124;2023-02-15T18:14:26;53.88;;;19.88;;
45694;SDS011;31408;45.468;9.124;2023-02-15T18:16:52;63.28;;;23.75;;
45694;SDS011;31408;45.468;9.124;2023-02-15T18:19:22;61.45;;;22.88;;